createdAt,value
2018-09-27T00:00:22.492Z,11.80
2018-09-27T00:02:51.507Z,11.80
2018-09-27T00:05:19.783Z,11.80
2018-09-27T00:07:48.023Z,11.80
2018-09-27T00:10:16.294Z,11.70
2018-09-27T00:12:44.560Z,11.50
2018-09-27T00:15:12.801Z,11.50
2018-09-27T00:17:41.066Z,11.40
2018-09-27T00:20:09.338Z,11.40
2018-09-27T00:22:37.577Z,11.50
2018-09-27T00:25:06.615Z,11.40
2018-09-27T00:27:34.872Z,11.40
2018-09-27T00:30:03.134Z,11.50
2018-09-27T00:32:32.155Z,10.80
2018-09-27T00:35:00.406Z,10.80
2018-09-27T00:37:28.671Z,10.60
2018-09-27T00:39:56.889Z,10.60
2018-09-27T00:42:25.129Z,10.70
2018-09-27T00:44:54.138Z,10.80
2018-09-27T00:47:22.418Z,10.80
2018-09-27T00:49:50.678Z,10.90
2018-09-27T00:52:18.921Z,11.00
2018-09-27T00:54:47.285Z,10.90
2018-09-27T00:57:15.539Z,11.00
2018-09-27T00:59:44.544Z,11.00
2018-09-27T01:02:13.570Z,11.00
2018-09-27T01:04:42.802Z,11.00
2018-09-27T01:07:11.058Z,11.00
2018-09-27T01:09:40.050Z,11.00
2018-09-27T01:12:08.328Z,11.00
2018-09-27T01:14:36.662Z,11.10
2018-09-27T01:17:04.910Z,11.10
2018-09-27T01:19:33.158Z,11.00
2018-09-27T01:22:01.513Z,11.00
2018-09-27T01:24:30.561Z,10.90
2018-09-27T01:26:58.817Z,10.90
2018-09-27T01:29:27.099Z,10.90
2018-09-27T01:31:55.388Z,10.90
2018-09-27T01:34:23.638Z,10.90
2018-09-27T01:36:51.873Z,10.90
2018-09-27T01:39:20.925Z,10.80
2018-09-27T01:41:49.170Z,10.80
2018-09-27T01:44:17.415Z,10.70
2018-09-27T01:46:46.438Z,10.50
2018-09-27T01:49:14.683Z,10.60
2018-09-27T01:51:43.735Z,10.60
2018-09-27T01:54:11.979Z,10.50
2018-09-27T01:56:40.237Z,10.60
2018-09-27T01:59:09.272Z,10.60
2018-09-27T02:01:37.535Z,10.50
2018-09-27T02:04:05.796Z,10.10
2018-09-27T02:06:34.033Z,9.90
2018-09-27T02:09:02.352Z,9.80
2018-09-27T02:11:31.354Z,9.80
2018-09-27T02:13:59.584Z,9.70
2018-09-27T02:16:28.610Z,10.00
2018-09-27T02:18:56.854Z,10.00
2018-09-27T02:21:25.870Z,10.20
2018-09-27T02:23:54.348Z,10.20
2018-09-27T02:26:22.602Z,10.20
2018-09-27T02:28:51.618Z,10.30
2018-09-27T02:31:19.889Z,10.30
2018-09-27T02:33:49.097Z,10.40
2018-09-27T02:36:17.339Z,10.30
2018-09-27T02:38:46.365Z,10.30
2018-09-27T02:41:14.633Z,10.30
2018-09-27T02:43:42.866Z,10.30
2018-09-27T02:46:11.122Z,10.30
2018-09-27T02:48:39.390Z,10.30
2018-09-27T02:51:07.649Z,10.30
2018-09-27T02:53:35.877Z,10.30
2018-09-27T02:56:04.910Z,10.30
2018-09-27T02:58:33.162Z,10.30
2018-09-27T03:01:02.188Z,10.30
2018-09-27T03:03:30.429Z,10.30
2018-09-27T03:05:59.554Z,10.10
2018-09-27T03:08:27.795Z,10.10
2018-09-27T03:10:56.794Z,10.00
2018-09-27T03:13:25.999Z,10.00
2018-09-27T03:15:54.348Z,10.00
2018-09-27T03:18:22.563Z,10.10
2018-09-27T03:20:50.877Z,10.00
2018-09-27T03:23:19.065Z,9.80
2018-09-27T03:25:47.307Z,9.40
2018-09-27T03:28:15.554Z,9.30
2018-09-27T03:30:44.031Z,9.30
2018-09-27T03:33:12.271Z,9.40
2018-09-27T03:35:40.506Z,9.40
2018-09-27T03:38:08.750Z,9.40
2018-09-27T03:40:37.065Z,9.50
2018-09-27T03:43:05.292Z,9.40
2018-09-27T03:45:34.292Z,9.40
2018-09-27T03:48:03.301Z,9.50
2018-09-27T03:50:32.390Z,9.50
2018-09-27T03:53:00.652Z,9.50
2018-09-27T03:55:28.901Z,9.50
2018-09-27T03:57:57.125Z,9.50
2018-09-27T04:00:25.385Z,9.60
2018-09-27T04:02:53.615Z,9.20
2018-09-27T04:05:21.882Z,9.00
2018-09-27T04:07:50.127Z,9.00
2018-09-27T04:10:18.358Z,9.10
2018-09-27T04:12:47.370Z,9.20
2018-09-27T04:15:15.623Z,9.20
2018-09-27T04:17:44.657Z,9.10
2018-09-27T04:20:12.906Z,9.10
2018-09-27T04:22:41.906Z,8.80
2018-09-27T04:25:10.319Z,8.80
2018-09-27T04:27:39.013Z,8.70
2018-09-27T04:30:07.208Z,8.70
2018-09-27T04:32:35.454Z,8.80
2018-09-27T04:35:03.766Z,8.90
2018-09-27T04:37:31.958Z,9.00
2018-09-27T04:40:00.197Z,9.10
2018-09-27T04:42:28.438Z,9.10
2018-09-27T04:44:56.837Z,9.20
2018-09-27T04:47:25.081Z,9.20
2018-09-27T04:49:53.323Z,9.30
2018-09-27T04:52:22.340Z,9.10
2018-09-27T04:54:50.578Z,9.10
2018-09-27T04:57:19.593Z,8.90
2018-09-27T04:59:48.605Z,9.00
2018-09-27T05:02:16.849Z,9.00
2018-09-27T05:04:45.854Z,8.90
2018-09-27T05:07:14.104Z,8.90
2018-09-27T05:09:43.212Z,8.90
2018-09-27T05:12:11.673Z,8.90
2018-09-27T05:14:39.954Z,9.00
2018-09-27T05:17:08.153Z,9.10
2018-09-27T05:19:37.172Z,8.50
2018-09-27T05:22:05.495Z,8.50
2018-09-27T05:24:33.710Z,8.40
2018-09-27T05:27:01.950Z,8.50
2018-09-27T05:29:31.114Z,8.60
2018-09-27T05:31:59.355Z,8.60
2018-09-27T05:34:27.585Z,8.30
2018-09-27T05:36:55.861Z,8.10
2018-09-27T05:39:24.288Z,8.20
2018-09-27T05:41:52.918Z,8.30
2018-09-27T05:44:21.155Z,8.40
2018-09-27T05:46:49.405Z,8.40
2018-09-27T05:49:17.637Z,8.50
2018-09-27T05:51:45.892Z,8.60
2018-09-27T05:54:14.123Z,8.70
2018-09-27T05:56:42.366Z,8.70
2018-09-27T05:59:10.646Z,8.70
2018-09-27T06:01:39.651Z,8.90
2018-09-27T06:04:08.648Z,8.90
2018-09-27T06:06:37.921Z,8.90
2018-09-27T06:09:06.355Z,8.90
2018-09-27T06:11:34.675Z,8.90
2018-09-27T06:14:03.613Z,9.00
2018-09-27T06:16:31.851Z,8.90
2018-09-27T06:19:00.078Z,8.80
2018-09-27T06:21:28.390Z,8.90
2018-09-27T06:23:56.848Z,9.00
2018-09-27T06:26:25.462Z,9.10
2018-09-27T06:28:53.703Z,9.20
2018-09-27T06:31:21.964Z,9.30
2018-09-27T06:33:50.203Z,9.30
2018-09-27T06:36:19.207Z,9.40
2018-09-27T06:38:47.464Z,9.40
2018-09-27T06:41:16.507Z,9.60
2018-09-27T06:43:44.725Z,9.60
2018-09-27T06:46:13.752Z,9.80
2018-09-27T06:48:42.002Z,9.80
2018-09-27T06:51:10.232Z,9.90
2018-09-27T06:53:38.534Z,10.10
2018-09-27T06:56:06.853Z,10.30
2018-09-27T06:58:35.025Z,10.60
2018-09-27T07:01:03.447Z,10.70
2018-09-27T07:03:31.531Z,11.00
2018-09-27T07:06:00.647Z,11.50
2018-09-27T07:08:29.716Z,11.80
2018-09-27T07:10:57.935Z,11.80
2018-09-27T07:13:26.189Z,12.00
2018-09-27T07:15:55.227Z,12.50
2018-09-27T07:18:23.488Z,12.50
2018-09-27T07:20:52.936Z,13.10
2018-09-27T07:23:21.168Z,13.10
2018-09-27T07:25:49.411Z,13.30
2018-09-27T07:28:18.438Z,13.70
2018-09-27T07:30:46.796Z,13.70
2018-09-27T07:33:15.035Z,13.90
2018-09-27T07:35:43.667Z,14.00
2018-09-27T07:38:11.931Z,14.10
2018-09-27T07:40:40.176Z,14.30
2018-09-27T07:43:09.186Z,14.50
2018-09-27T07:45:37.451Z,14.50
2018-09-27T07:48:06.470Z,15.10
2018-09-27T07:50:34.772Z,15.00
2018-09-27T07:53:03.222Z,15.20
2018-09-27T07:55:31.465Z,15.30
2018-09-27T07:58:00.476Z,15.50
2018-09-27T08:00:29.494Z,15.70
2018-09-27T08:02:57.912Z,15.70
2018-09-27T08:05:26.761Z,15.90
2018-09-27T08:07:55.228Z,15.90
2018-09-27T08:10:23.469Z,16.00
2018-09-27T08:12:51.696Z,16.20
2018-09-27T08:15:19.954Z,16.40
2018-09-27T08:17:48.211Z,16.60
2018-09-27T08:20:16.494Z,16.90
2018-09-27T08:22:45.478Z,17.00
2018-09-27T08:25:13.735Z,16.90
2018-09-27T08:27:41.994Z,17.00
2018-09-27T08:30:10.258Z,17.10
2018-09-27T08:32:38.542Z,17.30
2018-09-27T08:35:07.320Z,17.40
2018-09-27T08:37:35.565Z,17.60
2018-09-27T08:40:03.826Z,17.90
2018-09-27T08:42:32.081Z,17.80
2018-09-27T08:45:01.322Z,17.70
2018-09-27T08:47:29.334Z,17.70
2018-09-27T08:49:58.670Z,17.90
2018-09-27T08:52:26.920Z,17.90
2018-09-27T08:54:55.931Z,18.10
2018-09-27T08:57:24.194Z,18.10
2018-09-27T08:59:53.208Z,18.20
2018-09-27T09:02:21.451Z,18.20
2018-09-27T09:04:50.470Z,18.40
2018-09-27T09:07:19.090Z,18.30
2018-09-27T09:09:47.331Z,18.50
2018-09-27T09:12:15.620Z,18.60
2018-09-27T09:14:44.610Z,19.00
2018-09-27T09:17:12.897Z,19.00
2018-09-27T09:19:41.211Z,19.00
2018-09-27T09:22:09.415Z,19.10
2018-09-27T09:24:37.803Z,19.10
2018-09-27T09:27:06.364Z,19.20
2018-09-27T09:29:34.645Z,19.20
2018-09-27T09:32:02.877Z,19.30
2018-09-27T09:34:31.129Z,19.40
2018-09-27T09:36:59.382Z,19.50
2018-09-27T09:39:27.625Z,19.60
2018-09-27T09:41:56.664Z,19.70
2018-09-27T09:44:24.893Z,19.70
2018-09-27T09:46:53.977Z,20.00
2018-09-27T09:49:22.971Z,20.00
2018-09-27T09:51:51.233Z,20.10
2018-09-27T09:54:19.496Z,20.20
2018-09-27T09:56:47.725Z,20.30
2018-09-27T09:59:15.989Z,20.30
2018-09-27T10:01:44.995Z,20.70
2018-09-27T10:04:13.266Z,20.60
2018-09-27T10:06:41.516Z,20.60
2018-09-27T10:09:10.527Z,20.60
2018-09-27T10:11:38.782Z,20.60
2018-09-27T10:14:08.309Z,20.80
2018-09-27T10:16:36.562Z,20.70
2018-09-27T10:19:05.577Z,20.80
2018-09-27T10:21:33.834Z,20.80
2018-09-27T10:24:02.873Z,20.90
2018-09-27T10:26:31.678Z,20.80
2018-09-27T10:28:59.916Z,21.00
2018-09-27T10:31:28.175Z,21.20
2018-09-27T10:33:57.185Z,21.30
2018-09-27T10:36:25.439Z,21.30
2018-09-27T10:38:54.441Z,21.50
2018-09-27T10:41:22.705Z,21.50
2018-09-27T10:43:51.748Z,21.60
2018-09-27T10:46:19.994Z,21.60
2018-09-27T10:48:48.261Z,21.90
2018-09-27T10:51:16.550Z,22.10
2018-09-27T10:53:45.542Z,22.20
2018-09-27T10:56:13.794Z,22.20
2018-09-27T10:58:42.823Z,22.20
2018-09-27T11:01:11.090Z,22.20
2018-09-27T11:03:39.406Z,22.20
2018-09-27T11:06:07.667Z,22.30
2018-09-27T11:08:35.939Z,22.40
2018-09-27T11:11:04.241Z,22.50
2018-09-27T11:13:32.501Z,22.60
2018-09-27T11:16:00.729Z,22.70
2018-09-27T11:18:29.001Z,22.70
2018-09-27T11:20:57.298Z,22.90
2018-09-27T11:23:25.546Z,23.10
2018-09-27T11:25:53.826Z,23.00
2018-09-27T11:28:22.366Z,23.00
2018-09-27T11:30:50.633Z,23.10
2018-09-27T11:33:18.878Z,23.30
2018-09-27T11:35:47.159Z,23.30
2018-09-27T11:38:15.397Z,23.30
2018-09-27T11:40:43.679Z,23.30
2018-09-27T11:43:11.920Z,23.30
2018-09-27T11:45:40.169Z,23.40
2018-09-27T11:50:43.848Z,23.60
2018-09-27T11:53:12.125Z,23.70
2018-09-27T11:55:41.287Z,23.80
2018-09-27T11:58:09.551Z,23.90
2018-09-27T12:00:37.833Z,24.00
2018-09-27T12:03:06.168Z,24.20
2018-09-27T12:05:34.422Z,24.30
2018-09-27T12:08:02.661Z,24.30
2018-09-27T12:10:30.988Z,24.20
2018-09-27T12:12:59.225Z,24.20
2018-09-27T12:15:28.261Z,24.30
2018-09-27T12:17:56.526Z,24.30
2018-09-27T12:20:24.758Z,24.40
2018-09-27T12:22:53.840Z,24.30
2018-09-27T12:25:22.804Z,24.30
2018-09-27T12:27:51.061Z,24.30
2018-09-27T12:30:19.302Z,24.40
2018-09-27T12:32:48.334Z,24.60
2018-09-27T12:35:16.599Z,24.60
2018-09-27T12:37:44.837Z,24.70
2018-09-27T12:40:13.857Z,24.90
2018-09-27T12:42:42.289Z,24.90
2018-09-27T12:45:10.588Z,25.10
2018-09-27T12:47:38.744Z,25.20
2018-09-27T12:50:07.014Z,25.20
2018-09-27T12:52:35.354Z,25.20
2018-09-27T12:55:03.514Z,25.30
2018-09-27T12:57:31.774Z,25.40
2018-09-27T13:00:00.817Z,25.40
2018-09-27T13:02:29.141Z,25.40
2018-09-27T13:04:57.328Z,25.50
2018-09-27T13:07:25.577Z,25.40
2018-09-27T13:09:54.798Z,25.30
2018-09-27T13:12:22.941Z,25.30
2018-09-27T13:14:51.169Z,25.50
2018-09-27T13:17:19.462Z,25.50
2018-09-27T13:19:47.713Z,25.50
2018-09-27T13:22:15.955Z,25.60
2018-09-27T13:24:44.977Z,25.80
2018-09-27T13:27:13.219Z,25.70
2018-09-27T13:29:42.248Z,25.60
2018-09-27T13:32:10.603Z,25.60
2018-09-27T13:34:38.800Z,25.60
2018-09-27T13:37:07.092Z,25.60
2018-09-27T13:39:36.061Z,25.60
2018-09-27T13:42:04.334Z,25.50
2018-09-27T13:44:32.594Z,25.60
2018-09-27T13:47:00.854Z,25.70
2018-09-27T13:49:29.135Z,25.80
2018-09-27T13:51:57.410Z,25.90
2018-09-27T13:54:26.422Z,25.90
2018-09-27T13:56:54.768Z,25.90
2018-09-27T13:59:22.959Z,26.00
2018-09-27T14:01:51.210Z,26.10
2018-09-27T14:04:20.251Z,26.30
2018-09-27T14:06:48.519Z,26.30
2018-09-27T14:09:16.784Z,26.50
2018-09-27T14:11:45.027Z,26.60
2018-09-27T14:14:14.067Z,26.60
2018-09-27T14:16:42.313Z,26.60
2018-09-27T14:19:11.340Z,26.70
2018-09-27T14:21:39.592Z,26.70
2018-09-27T14:24:07.857Z,26.60
2018-09-27T14:26:36.118Z,26.70
2018-09-27T14:29:05.124Z,26.70
2018-09-27T14:31:33.400Z,26.70
2018-09-27T14:34:03.046Z,26.60
2018-09-27T14:36:31.568Z,26.60
2018-09-27T14:38:59.738Z,26.50
2018-09-27T14:41:29.825Z,26.60
2018-09-27T14:43:58.805Z,26.60
2018-09-27T14:46:27.067Z,26.60
2018-09-27T14:48:55.297Z,26.60
2018-09-27T14:51:23.565Z,26.50
2018-09-27T14:53:51.810Z,26.60
2018-09-27T14:56:20.107Z,26.40
2018-09-27T14:58:48.335Z,26.30
2018-09-27T15:01:16.614Z,26.30
2018-09-27T15:03:44.855Z,26.30
2018-09-27T15:06:13.858Z,26.20
2018-09-27T15:08:42.135Z,26.10
2018-09-27T15:11:10.395Z,26.10
2018-09-27T15:13:38.888Z,26.10
2018-09-27T15:16:07.145Z,26.10
2018-09-27T15:18:35.404Z,26.10
2018-09-27T15:21:03.657Z,26.10
2018-09-27T15:23:32.027Z,26.30
2018-09-27T15:26:00.194Z,26.20
2018-09-27T15:28:28.433Z,26.10
2018-09-27T15:30:57.481Z,25.90
2018-09-27T15:33:25.736Z,25.80
2018-09-27T15:35:53.982Z,25.70
2018-09-27T15:38:22.274Z,25.80
2018-09-27T15:40:50.532Z,25.80
2018-09-27T15:43:19.544Z,25.60
2018-09-27T15:45:47.813Z,25.60
2018-09-27T15:48:16.054Z,25.60
2018-09-27T15:50:44.381Z,25.60
2018-09-27T15:53:12.628Z,25.50
2018-09-27T15:55:41.774Z,25.30
2018-09-27T15:58:10.247Z,25.30
2018-09-27T16:00:38.535Z,25.20
2018-09-27T16:03:06.767Z,25.10
2018-09-27T16:05:35.035Z,25.10
2018-09-27T16:08:03.276Z,25.00
2018-09-27T16:10:31.535Z,24.90
2018-09-27T16:12:59.793Z,24.70
2018-09-27T16:15:28.049Z,24.80
2018-09-27T16:17:56.315Z,24.70
2018-09-27T16:20:24.562Z,24.60
2018-09-27T16:22:53.876Z,24.50
2018-09-27T16:25:22.127Z,24.40
2018-09-27T16:27:51.143Z,24.30
2018-09-27T16:30:19.412Z,24.30
2018-09-27T16:32:48.419Z,24.20
2018-09-27T16:35:16.823Z,24.10
2018-09-27T16:37:45.137Z,24.10
2018-09-27T16:40:13.355Z,24.10
2018-09-27T16:42:42.609Z,24.00
2018-09-27T16:45:10.883Z,24.00
2018-09-27T16:47:39.166Z,23.90
2018-09-27T16:50:07.385Z,23.80
2018-09-27T16:52:35.636Z,23.80
2018-09-27T16:55:03.906Z,23.90
2018-09-27T16:57:32.150Z,23.80
2018-09-27T17:00:00.410Z,23.70
2018-09-27T17:02:28.822Z,23.60
2018-09-27T17:04:57.046Z,23.50
2018-09-27T17:07:25.332Z,23.40
2018-09-27T17:09:53.583Z,23.30
2018-09-27T17:12:21.851Z,23.20
2018-09-27T17:14:50.107Z,23.20
2018-09-27T17:17:18.382Z,23.00
2018-09-27T17:19:47.395Z,22.50
2018-09-27T17:22:15.640Z,22.40
2018-09-27T17:24:44.755Z,22.00
2018-09-27T17:27:12.971Z,22.00
2018-09-27T17:29:41.239Z,21.80
2018-09-27T17:32:09.497Z,21.70
2018-09-27T17:34:37.789Z,21.40
2018-09-27T17:37:06.034Z,21.50
2018-09-27T17:39:34.299Z,21.40
2018-09-27T17:42:02.554Z,21.30
2018-09-27T17:44:30.812Z,21.10
2018-09-27T17:46:59.086Z,21.00
2018-09-27T17:49:27.411Z,20.80
2018-09-27T17:51:55.629Z,20.50
2018-09-27T17:54:23.889Z,20.70
2018-09-27T17:56:52.161Z,20.60
2018-09-27T17:59:20.410Z,20.50
2018-09-27T18:01:48.675Z,20.50
2018-09-27T18:04:16.955Z,20.40
2018-09-27T18:06:45.245Z,20.30
2018-09-27T18:09:13.501Z,20.30
2018-09-27T18:11:41.824Z,20.30
2018-09-27T18:14:10.048Z,20.20
2018-09-27T18:16:39.084Z,19.80
2018-09-27T18:19:07.426Z,19.70
2018-09-27T18:21:35.788Z,19.70
2018-09-27T18:24:04.756Z,19.50
2018-09-27T18:26:33.010Z,19.50
2018-09-27T18:29:01.310Z,19.50
2018-09-27T18:31:29.553Z,19.50
2018-09-27T18:33:57.787Z,19.40
2018-09-27T18:36:26.838Z,18.80
2018-09-27T18:38:55.124Z,18.80
2018-09-27T18:41:23.363Z,18.80
2018-09-27T18:43:51.661Z,18.80
2018-09-27T18:46:19.900Z,18.80
2018-09-27T18:48:48.151Z,18.70
2018-09-27T18:51:16.429Z,18.70
2018-09-27T18:53:45.456Z,18.60
2018-09-27T18:56:13.727Z,18.60
2018-09-27T18:58:42.010Z,18.60
2018-09-27T19:03:44.814Z,18.60
2018-09-27T19:06:13.080Z,18.50
2018-09-27T19:08:41.317Z,18.50
2018-09-27T19:11:10.375Z,18.30
2018-09-27T19:13:38.637Z,18.30
2018-09-27T19:16:06.915Z,18.30
2018-09-27T19:18:35.188Z,18.50
2018-09-27T19:21:03.438Z,18.20
2018-09-27T19:23:31.700Z,18.20
2018-09-27T19:25:59.976Z,18.20
2018-09-27T19:28:28.220Z,18.10
2018-09-27T19:30:57.266Z,18.10
2018-09-27T19:33:25.530Z,18.10
2018-09-27T19:35:53.787Z,18.10
2018-09-27T19:38:22.230Z,18.10
2018-09-27T19:40:50.489Z,18.10
2018-09-27T19:43:18.750Z,18.10
2018-09-27T19:45:47.017Z,18.00
2018-09-27T19:48:15.259Z,18.00
2018-09-27T19:50:43.547Z,18.00
2018-09-27T19:53:11.824Z,17.90
2018-09-27T19:55:40.060Z,17.90
2018-09-27T19:58:08.365Z,17.90
2018-09-27T20:00:36.568Z,17.90
2018-09-27T20:03:04.836Z,17.80
2018-09-27T20:05:33.132Z,17.70
2018-09-27T20:08:01.373Z,17.60
2018-09-27T20:10:29.731Z,17.60
2018-09-27T20:12:57.886Z,17.60
2018-09-27T20:15:26.916Z,17.60
2018-09-27T20:17:55.185Z,17.60
2018-09-27T20:20:23.458Z,17.50
2018-09-27T20:22:51.725Z,17.50
2018-09-27T20:25:20.731Z,17.40
2018-09-27T20:27:48.997Z,17.40
2018-09-27T20:30:17.262Z,17.40
2018-09-27T20:32:46.272Z,17.20
2018-09-27T20:35:14.517Z,17.20
2018-09-27T20:37:44.415Z,17.10
2018-09-27T20:40:12.660Z,17.10
2018-09-27T20:42:40.907Z,17.10
2018-09-27T20:45:09.170Z,17.10
2018-09-27T20:47:37.524Z,16.90
2018-09-27T20:50:05.700Z,16.80
2018-09-27T20:52:33.962Z,16.80
2018-09-27T20:55:02.487Z,16.80
2018-09-27T20:57:30.736Z,16.80
2018-09-27T20:59:58.972Z,16.70
2018-09-27T21:02:28.142Z,16.70
2018-09-27T21:04:56.376Z,16.70
2018-09-27T21:07:25.382Z,16.70
2018-09-27T21:09:54.425Z,16.70
2018-09-27T21:12:22.682Z,16.70
2018-09-27T21:14:50.923Z,16.70
2018-09-27T21:17:19.949Z,16.80
2018-09-27T21:19:48.589Z,16.70
2018-09-27T21:22:17.617Z,16.60
2018-09-27T21:24:45.885Z,16.60
2018-09-27T21:27:14.162Z,16.50
2018-09-27T21:29:42.407Z,16.50
2018-09-27T21:32:10.975Z,16.50
2018-09-27T21:34:39.244Z,16.50
2018-09-27T21:37:07.501Z,16.50
2018-09-27T21:39:35.903Z,16.50
2018-09-27T21:42:04.144Z,16.50
2018-09-27T21:44:32.387Z,16.50
2018-09-27T21:47:00.658Z,16.40
2018-09-27T21:49:28.893Z,16.40
2018-09-27T21:51:57.162Z,16.40
2018-09-27T21:54:25.410Z,16.40
2018-09-27T21:56:53.658Z,16.40
2018-09-27T21:59:21.918Z,16.30
2018-09-27T22:01:50.951Z,16.10
2018-09-27T22:04:19.193Z,16.10
2018-09-27T22:06:47.451Z,16.00
2018-09-27T22:09:16.482Z,15.90
2018-09-27T22:11:44.730Z,15.90
2018-09-27T22:14:13.743Z,15.90
2018-09-27T22:16:42.006Z,15.90
2018-09-27T22:19:10.255Z,15.90
2018-09-27T22:21:38.570Z,15.90
2018-09-27T22:24:06.837Z,15.80
2018-09-27T22:26:35.894Z,15.70
2018-09-27T22:29:04.146Z,15.70
2018-09-27T22:31:32.403Z,15.60
2018-09-27T22:34:00.649Z,15.60
2018-09-27T22:36:29.674Z,15.60
2018-09-27T22:38:57.946Z,15.60
2018-09-27T22:41:26.182Z,15.60
2018-09-27T22:43:55.188Z,15.50
2018-09-27T22:46:23.458Z,15.50
2018-09-27T22:48:52.456Z,15.50
2018-09-27T22:51:20.701Z,15.50
2018-09-27T22:53:48.964Z,15.50
2018-09-27T22:56:17.209Z,15.40
2018-09-27T22:58:45.467Z,15.40
2018-09-27T23:01:13.703Z,15.30
2018-09-27T23:03:42.735Z,15.20
2018-09-27T23:06:11.159Z,15.20
2018-09-27T23:08:39.414Z,15.30
2018-09-27T23:11:07.678Z,15.20
2018-09-27T23:13:35.911Z,15.20
2018-09-27T23:16:04.922Z,15.20
2018-09-27T23:18:33.176Z,15.10
2018-09-27T23:21:02.194Z,15.10
2018-09-27T23:23:30.454Z,15.00
2018-09-27T23:25:58.730Z,15.00
2018-09-27T23:28:26.954Z,15.00
2018-09-27T23:30:56.076Z,15.00
2018-09-27T23:33:24.281Z,14.90
2018-09-27T23:35:52.523Z,14.90
2018-09-27T23:38:20.786Z,15.00
2018-09-27T23:40:49.041Z,14.90
2018-09-27T23:43:17.274Z,14.90
2018-09-27T23:45:45.548Z,14.90
2018-09-27T23:48:13.788Z,14.80
2018-09-27T23:50:42.041Z,14.70
2018-09-27T23:53:10.286Z,14.60
2018-09-27T23:55:38.540Z,14.60
2018-09-27T23:58:07.551Z,14.50
